createdAt,value
2023-05-04T00:00:48.122Z,74.8677
2023-05-04T00:01:50.521Z,74.7576
2023-05-04T00:02:52.973Z,74.9321
2023-05-04T00:03:55.632Z,74.5744
2023-05-04T00:04:55.659Z,74.8365
2023-05-04T00:05:58.020Z,74.6750
2023-05-04T00:07:00.362Z,74.8263
2023-05-04T00:08:02.688Z,75.0046
2023-05-04T00:09:05.183Z,74.9928
2023-05-04T00:10:07.918Z,75.1132
2023-05-04T00:11:08.069Z,74.9884
2023-05-04T00:12:10.383Z,74.9942
2023-05-04T00:13:12.808Z,75.2285
2023-05-04T00:14:15.143Z,75.4016
2023-05-04T00:15:17.516Z,75.5513
2023-05-04T00:16:19.828Z,75.3801
2023-05-04T00:17:22.148Z,75.6259
2023-05-04T00:18:24.509Z,75.7522
2023-05-04T00:19:26.846Z,75.7224
2023-05-04T00:20:29.265Z,75.5912
2023-05-04T00:21:31.639Z,75.7002
2023-05-04T00:22:34.043Z,75.6152
2023-05-04T00:23:36.414Z,75.6786
2023-05-04T00:24:38.818Z,75.5901
2023-05-04T00:25:41.293Z,75.3760
2023-05-04T00:26:43.661Z,75.9398
2023-05-04T00:27:46.046Z,75.5876
2023-05-04T00:28:48.429Z,75.5503
2023-05-04T00:29:50.840Z,75.8588
2023-05-04T00:30:53.192Z,75.9286
2023-05-04T00:31:55.759Z,75.9675
2023-05-04T00:32:55.979Z,75.5496
2023-05-04T00:33:58.411Z,75.4546
2023-05-04T00:35:00.872Z,75.3864
2023-05-04T00:36:03.258Z,75.5652
2023-05-04T00:37:05.713Z,75.3580
2023-05-04T00:38:08.103Z,75.3021
2023-05-04T00:39:10.489Z,75.5770
2023-05-04T00:40:12.876Z,75.6462
2023-05-04T00:41:15.233Z,75.7461
2023-05-04T00:42:17.553Z,75.7305
2023-05-04T00:43:19.972Z,75.7368
2023-05-04T00:44:22.516Z,75.5655
2023-05-04T00:45:24.861Z,76.0077
2023-05-04T00:46:27.288Z,75.9735
2023-05-04T00:47:29.741Z,76.0509
2023-05-04T00:48:32.201Z,75.8376
2023-05-04T00:49:34.557Z,75.7032
2023-05-04T00:50:36.888Z,75.8765
2023-05-04T00:51:39.277Z,76.0825
2023-05-04T00:52:41.671Z,76.0027
2023-05-04T00:53:43.997Z,75.9889
2023-05-04T00:54:46.339Z,75.6142
2023-05-04T00:55:48.698Z,75.6367
2023-05-04T00:56:51.035Z,75.8552
2023-05-04T00:57:53.425Z,76.1791
2023-05-04T00:58:55.862Z,75.9875
2023-05-04T00:59:58.232Z,75.6282
2023-05-04T01:01:00.618Z,75.7990
2023-05-04T01:02:02.994Z,75.7287
2023-05-04T01:03:05.620Z,75.5825
2023-05-04T01:04:08.246Z,75.6522
2023-05-04T01:05:08.201Z,75.6921
2023-05-04T01:06:10.531Z,76.0272
2023-05-04T01:07:12.967Z,75.8688
2023-05-04T01:08:15.329Z,75.9262
2023-05-04T01:09:17.738Z,76.1145
2023-05-04T01:10:20.213Z,76.0691
2023-05-04T01:11:22.752Z,76.1306
2023-05-04T01:12:25.197Z,75.9820
2023-05-04T01:13:27.588Z,76.1393
2023-05-04T01:14:29.934Z,76.1533
2023-05-04T01:15:32.449Z,76.3252
2023-05-04T01:16:34.885Z,76.0150
2023-05-04T01:17:37.276Z,76.0758
2023-05-04T01:18:39.647Z,75.8708
2023-05-04T01:19:42.065Z,76.0990
2023-05-04T01:20:44.389Z,76.2201
2023-05-04T01:21:46.924Z,76.2646
2023-05-04T01:22:49.391Z,76.5830
2023-05-04T01:23:51.778Z,76.3482
2023-05-04T01:24:54.163Z,76.0871
2023-05-04T01:25:56.591Z,76.3235
2023-05-04T01:26:58.960Z,76.5189
2023-05-04T01:28:01.332Z,76.5997
2023-05-04T01:29:03.757Z,76.8336
2023-05-04T01:30:06.319Z,76.7787
2023-05-04T01:31:06.284Z,76.7867
2023-05-04T01:32:08.683Z,76.8160
2023-05-04T01:33:11.095Z,76.8297
2023-05-04T01:34:13.548Z,77.1328
2023-05-04T01:35:15.963Z,76.9597
2023-05-04T01:36:18.389Z,77.3193
2023-05-04T01:37:20.822Z,76.9057
2023-05-04T01:38:23.263Z,76.7716
2023-05-04T01:39:25.675Z,77.1144
2023-05-04T01:40:28.101Z,77.2823
2023-05-04T01:41:30.493Z,76.8761
2023-05-04T01:42:32.927Z,77.2641
2023-05-04T01:43:35.316Z,77.3625
2023-05-04T01:44:37.790Z,77.2496
2023-05-04T01:45:40.197Z,77.3985
2023-05-04T01:46:42.582Z,77.7981
2023-05-04T01:47:45.016Z,77.6077
2023-05-04T01:48:47.542Z,77.8514
2023-05-04T01:49:50.036Z,77.6298
2023-05-04T01:50:52.432Z,77.6713
2023-05-04T01:51:54.775Z,77.5686
2023-05-04T01:52:57.166Z,77.7686
2023-05-04T01:53:59.654Z,77.8603
2023-05-04T01:55:02.106Z,77.9907
2023-05-04T01:56:04.478Z,78.2185
2023-05-04T01:57:06.889Z,77.9506
2023-05-04T01:58:09.283Z,77.5760
2023-05-04T01:59:11.680Z,77.5919
2023-05-04T02:00:14.074Z,77.4367
2023-05-04T02:01:16.557Z,77.5104
2023-05-04T02:02:18.971Z,77.4216
2023-05-04T02:03:21.473Z,77.7258
2023-05-04T02:04:23.957Z,77.8603
2023-05-04T02:05:26.267Z,77.8705
2023-05-04T02:06:28.638Z,77.7454
2023-05-04T02:07:31.020Z,77.6674
2023-05-04T02:08:33.387Z,77.7102
2023-05-04T02:09:35.791Z,78.0451
2023-05-04T02:10:38.159Z,77.9660
2023-05-04T02:11:40.493Z,78.1242
2023-05-04T02:12:42.872Z,78.0693
2023-05-04T02:13:45.398Z,78.0192
2023-05-04T02:14:47.824Z,78.0271
2023-05-04T02:15:50.261Z,77.8830
2023-05-04T02:16:52.652Z,78.0602
2023-05-04T02:17:55.058Z,78.0529
2023-05-04T02:18:57.509Z,78.1758
2023-05-04T02:19:59.862Z,78.1875
2023-05-04T02:21:02.317Z,78.1264
2023-05-04T02:22:04.738Z,78.2679
2023-05-04T02:23:07.220Z,78.3425
2023-05-04T02:24:09.639Z,78.1790
2023-05-04T02:25:12.005Z,78.0434
2023-05-04T02:26:14.375Z,78.3202
2023-05-04T02:27:16.812Z,78.4221
2023-05-04T02:28:19.166Z,78.5507
2023-05-04T02:29:21.517Z,78.5245
2023-05-04T02:30:23.954Z,78.7398
2023-05-04T02:31:26.385Z,78.7454
2023-05-04T02:32:28.876Z,79.1453
2023-05-04T02:33:31.254Z,78.9570
2023-05-04T02:34:33.667Z,78.9797
2023-05-04T02:35:36.034Z,78.7404
2023-05-04T02:36:38.499Z,78.7744
2023-05-04T02:37:40.957Z,78.6988
2023-05-04T02:38:43.376Z,78.8502
2023-05-04T02:39:45.809Z,79.0485
2023-05-04T02:40:48.286Z,78.9115
2023-05-04T02:41:50.713Z,79.1172
2023-05-04T02:42:53.150Z,79.0297
2023-05-04T02:43:55.563Z,78.7647
2023-05-04T02:44:58.024Z,78.8860
2023-05-04T02:46:00.489Z,79.1422
2023-05-04T02:47:02.955Z,79.5010
2023-05-04T02:48:05.929Z,79.7629
2023-05-04T02:49:08.451Z,79.8469
2023-05-04T02:50:10.887Z,79.7977
2023-05-04T02:51:13.288Z,79.7359
2023-05-04T02:52:15.635Z,79.8937
2023-05-04T02:53:18.058Z,79.6699
2023-05-04T02:54:20.441Z,79.9682
2023-05-04T02:55:22.811Z,80.0395
2023-05-04T02:56:25.184Z,80.2618
2023-05-04T02:57:27.615Z,79.9139
2023-05-04T02:58:29.988Z,79.4961
2023-05-04T02:59:32.432Z,79.8927
2023-05-04T03:00:34.787Z,79.9419
2023-05-04T03:01:37.240Z,79.7244
2023-05-04T03:02:39.652Z,79.7721
2023-05-04T03:03:42.014Z,79.9436
2023-05-04T03:04:44.383Z,80.0685
2023-05-04T03:05:46.803Z,79.7731
2023-05-04T03:06:49.165Z,79.8442
2023-05-04T03:07:51.544Z,79.8027
2023-05-04T03:08:53.982Z,79.8552
2023-05-04T03:09:56.376Z,79.7555
2023-05-04T03:10:58.809Z,79.4907
2023-05-04T03:12:01.232Z,79.4222
2023-05-04T03:13:03.678Z,79.6040
2023-05-04T03:14:06.152Z,80.0266
2023-05-04T03:15:08.531Z,80.0237
2023-05-04T03:16:11.052Z,80.1234
2023-05-04T03:17:13.452Z,79.9528
2023-05-04T03:18:15.923Z,79.9974
2023-05-04T03:19:18.284Z,79.7129
2023-05-04T03:20:20.716Z,80.1565
2023-05-04T03:21:23.189Z,80.3921
2023-05-04T03:22:25.603Z,80.5654
2023-05-04T03:23:27.984Z,80.8731
2023-05-04T03:24:30.400Z,80.8904
2023-05-04T03:25:32.733Z,80.7220
2023-05-04T03:26:35.231Z,80.5176
2023-05-04T03:27:37.621Z,80.5881
2023-05-04T03:28:40.023Z,80.3833
2023-05-04T03:29:42.368Z,80.6217
2023-05-04T03:30:44.836Z,80.5477
2023-05-04T03:31:47.213Z,80.6887
2023-05-04T03:32:49.669Z,80.7158
2023-05-04T03:33:52.049Z,80.8761
2023-05-04T03:34:54.484Z,80.9124
2023-05-04T03:35:56.834Z,81.0923
2023-05-04T03:36:59.220Z,81.0662
2023-05-04T03:38:01.598Z,80.9675
2023-05-04T03:39:04.200Z,80.9345
2023-05-04T03:40:06.930Z,81.2933
2023-05-04T03:41:06.891Z,81.3871
2023-05-04T03:42:09.264Z,81.3876
2023-05-04T03:43:11.657Z,81.3759
2023-05-04T03:44:14.080Z,81.4116
2023-05-04T03:45:16.527Z,81.3605
2023-05-04T03:46:18.912Z,81.2006
2023-05-04T03:47:21.304Z,81.0861
2023-05-04T03:48:23.701Z,80.9866
2023-05-04T03:49:26.127Z,81.1842
2023-05-04T03:50:28.488Z,81.3741
2023-05-04T03:51:30.878Z,81.4144
2023-05-04T03:52:33.245Z,81.5086
2023-05-04T03:53:35.704Z,81.1802
2023-05-04T03:54:38.178Z,81.4793
2023-05-04T03:55:40.637Z,81.4067
2023-05-04T03:56:43.073Z,81.4246
2023-05-04T03:57:45.477Z,81.3250
2023-05-04T03:58:47.887Z,81.4950
2023-05-04T03:59:50.606Z,81.5336
2023-05-04T04:00:52.999Z,81.5308
2023-05-04T04:01:55.489Z,81.4800
2023-05-04T04:02:57.864Z,81.6556
2023-05-04T04:04:00.376Z,81.7550
2023-05-04T04:05:02.966Z,81.6394
2023-05-04T04:06:05.360Z,81.6193
2023-05-04T04:07:07.732Z,81.5662
2023-05-04T04:08:10.106Z,81.5361
2023-05-04T04:09:12.476Z,81.6790
2023-05-04T04:10:14.903Z,81.5562
2023-05-04T04:11:17.287Z,81.4575
2023-05-04T04:12:19.721Z,81.4800
2023-05-04T04:13:22.125Z,81.6614
2023-05-04T04:14:24.557Z,81.9354
2023-05-04T04:15:26.981Z,81.8266
2023-05-04T04:16:29.363Z,81.7319
2023-05-04T04:17:31.801Z,81.7434
2023-05-04T04:18:34.261Z,81.9810
2023-05-04T04:19:36.652Z,81.9864
2023-05-04T04:20:39.042Z,82.3028
2023-05-04T04:21:41.402Z,82.4704
2023-05-04T04:22:43.800Z,82.7737
2023-05-04T04:23:46.207Z,82.6298
2023-05-04T04:24:48.612Z,82.3855
2023-05-04T04:25:51.073Z,82.6490
2023-05-04T04:26:53.488Z,82.5025
2023-05-04T04:27:55.885Z,82.5195
2023-05-04T04:28:58.285Z,82.3362
2023-05-04T04:30:00.692Z,82.2551
2023-05-04T04:31:03.239Z,82.0579
2023-05-04T04:32:05.672Z,82.0822
2023-05-04T04:33:08.081Z,82.2790
2023-05-04T04:34:10.488Z,82.6008
2023-05-04T04:35:12.836Z,82.5773
2023-05-04T04:36:15.295Z,82.5195
2023-05-04T04:37:17.670Z,82.0043
2023-05-04T04:38:20.054Z,81.4965
2023-05-04T04:39:22.521Z,81.7627
2023-05-04T04:40:24.886Z,81.7308
2023-05-04T04:41:27.289Z,81.5394
2023-05-04T04:42:29.632Z,81.8596
2023-05-04T04:43:32.061Z,81.8737
2023-05-04T04:44:34.495Z,82.0071
2023-05-04T04:45:36.884Z,81.8739
2023-05-04T04:46:39.365Z,81.9115
2023-05-04T04:47:41.796Z,81.7139
2023-05-04T04:48:44.327Z,81.6704
2023-05-04T04:49:46.750Z,81.6806
2023-05-04T04:50:49.158Z,81.7210
2023-05-04T04:51:51.724Z,81.4832
2023-05-04T04:52:54.145Z,81.6881
2023-05-04T04:53:56.589Z,81.7277
2023-05-04T04:54:59.040Z,81.7690
2023-05-04T04:56:01.488Z,81.6147
2023-05-04T04:57:03.911Z,81.4461
2023-05-04T04:58:06.602Z,81.4459
2023-05-04T04:59:09.077Z,81.2960
2023-05-04T05:00:11.724Z,81.3624
2023-05-04T05:01:14.206Z,81.3746
2023-05-04T05:02:16.719Z,81.3963
2023-05-04T05:03:19.165Z,81.2860
2023-05-04T05:04:21.661Z,80.9550
2023-05-04T05:05:24.044Z,81.2634
2023-05-04T05:06:26.543Z,81.4221
2023-05-04T05:07:29.143Z,81.5313
2023-05-04T05:08:31.712Z,81.5133
2023-05-04T05:09:34.203Z,81.2054
2023-05-04T05:10:36.684Z,81.1446
2023-05-04T05:11:39.315Z,81.0814
2023-05-04T05:12:41.819Z,80.9644
2023-05-04T05:13:44.294Z,80.9671
2023-05-04T05:14:46.724Z,81.2461
2023-05-04T05:15:49.142Z,81.3313
2023-05-04T05:16:51.712Z,81.0416
2023-05-04T05:17:54.253Z,80.9426
2023-05-04T05:18:56.751Z,81.0715
2023-05-04T05:19:59.266Z,80.9736
2023-05-04T05:21:01.680Z,81.0604
2023-05-04T05:22:04.378Z,80.8528
2023-05-04T05:23:06.798Z,80.6965
2023-05-04T05:24:09.271Z,80.6795
2023-05-04T05:25:11.703Z,80.6857
2023-05-04T05:26:14.196Z,80.2135
2023-05-04T05:27:16.666Z,79.9704
2023-05-04T05:28:19.130Z,79.9935
2023-05-04T05:29:21.575Z,79.5171
2023-05-04T05:30:24.097Z,79.3819
2023-05-04T05:31:26.688Z,79.4399
2023-05-04T05:32:26.749Z,79.3646
2023-05-04T05:33:29.202Z,79.5363
2023-05-04T05:34:31.694Z,79.5223
2023-05-04T05:35:34.149Z,79.3522
2023-05-04T05:36:36.655Z,79.2897
2023-05-04T05:37:39.073Z,79.4667
2023-05-04T05:38:41.475Z,79.5278
2023-05-04T05:39:43.916Z,79.5936
2023-05-04T05:40:46.381Z,79.5791
2023-05-04T05:41:48.788Z,79.1500
2023-05-04T05:42:51.220Z,78.9003
2023-05-04T05:43:53.677Z,78.9970
2023-05-04T05:44:56.157Z,78.9491
2023-05-04T05:45:58.620Z,78.7561
2023-05-04T05:47:01.028Z,78.7394
2023-05-04T05:48:03.515Z,78.9507
2023-05-04T05:49:06.015Z,78.7781
2023-05-04T05:50:08.672Z,78.8268
2023-05-04T05:51:11.310Z,78.5043
2023-05-04T05:52:13.787Z,78.5382
2023-05-04T05:53:16.264Z,78.2204
2023-05-04T05:54:18.697Z,78.0431
2023-05-04T05:55:21.147Z,78.1298
2023-05-04T05:56:23.614Z,78.4443
2023-05-04T05:57:26.124Z,78.2585
2023-05-04T05:58:28.551Z,78.3862
2023-05-04T05:59:31.020Z,78.1356
2023-05-04T06:00:33.489Z,78.2833
2023-05-04T06:01:35.919Z,78.2903
2023-05-04T06:02:38.624Z,78.4134
2023-05-04T06:03:41.461Z,78.4226
2023-05-04T06:04:41.351Z,78.1040
2023-05-04T06:05:43.853Z,77.9993
2023-05-04T06:06:46.325Z,77.7601
2023-05-04T06:07:48.778Z,77.8733
2023-05-04T06:08:51.273Z,77.7813
2023-05-04T06:09:53.694Z,78.0776
2023-05-04T06:10:56.080Z,78.0154
2023-05-04T06:11:58.490Z,77.5523
2023-05-04T06:13:01.006Z,77.4187
2023-05-04T06:14:03.475Z,77.3492
2023-05-04T06:15:05.949Z,76.9988
2023-05-04T06:16:08.466Z,77.2335
2023-05-04T06:17:10.889Z,77.1473
2023-05-04T06:18:13.362Z,77.0090
2023-05-04T06:19:15.751Z,77.0130
2023-05-04T06:20:18.188Z,76.7340
2023-05-04T06:21:20.643Z,76.7182
2023-05-04T06:22:23.374Z,76.7643
2023-05-04T06:23:25.771Z,76.6467
2023-05-04T06:24:28.241Z,76.5704
2023-05-04T06:25:30.637Z,76.5102
2023-05-04T06:26:33.103Z,76.6606
2023-05-04T06:27:35.623Z,76.3538
2023-05-04T06:28:38.060Z,76.5995
2023-05-04T06:29:40.501Z,76.7491
2023-05-04T06:30:42.993Z,76.4949
2023-05-04T06:31:46.777Z,76.2941
2023-05-04T06:32:48.015Z,76.4989
2023-05-04T06:33:50.544Z,76.4991
2023-05-04T06:34:53.003Z,76.2804
2023-05-04T06:35:55.469Z,76.3471
2023-05-04T06:36:57.933Z,76.1637
2023-05-04T06:38:00.339Z,75.2890
2023-05-04T06:39:02.768Z,74.5750
2023-05-04T06:40:05.254Z,74.3295
2023-05-04T06:41:07.706Z,73.8063
2023-05-04T06:42:10.093Z,74.0453
2023-05-04T06:43:12.569Z,74.1539
2023-05-04T06:44:15.014Z,73.9937
2023-05-04T06:45:17.442Z,74.5298
2023-05-04T06:46:19.906Z,74.9307
2023-05-04T06:47:22.451Z,75.1145
2023-05-04T06:48:25.015Z,74.8296
2023-05-04T06:49:27.413Z,74.5489
2023-05-04T06:50:29.810Z,74.6064
2023-05-04T06:51:32.263Z,74.2145
2023-05-04T06:52:34.678Z,73.6428
2023-05-04T06:53:37.305Z,74.1810
2023-05-04T06:54:39.676Z,73.7467
2023-05-04T06:55:42.086Z,73.2415
2023-05-04T06:56:44.520Z,73.1588
2023-05-04T06:57:46.913Z,72.7966
2023-05-04T06:58:49.326Z,73.8299
2023-05-04T06:59:51.739Z,73.4718
2023-05-04T07:00:54.136Z,72.9711
2023-05-04T07:01:56.522Z,72.8650
2023-05-04T07:02:58.969Z,73.0650
2023-05-04T07:04:01.415Z,73.4938
2023-05-04T07:05:03.855Z,73.3489
2023-05-04T07:06:06.360Z,73.0703
2023-05-04T07:07:08.784Z,73.5451
2023-05-04T07:08:11.173Z,73.5733
2023-05-04T07:09:13.579Z,73.3863
2023-05-04T07:10:16.001Z,73.0348
2023-05-04T07:11:18.406Z,73.5396
2023-05-04T07:12:20.871Z,73.2848
2023-05-04T07:13:23.478Z,73.8595
2023-05-04T07:14:25.864Z,73.6629
2023-05-04T07:15:28.276Z,73.5547
2023-05-04T07:16:30.658Z,73.7717
2023-05-04T07:17:33.076Z,73.9763
2023-05-04T07:18:35.511Z,74.0880
2023-05-04T07:19:37.961Z,74.3596
2023-05-04T07:20:40.362Z,74.5011
2023-05-04T07:21:42.806Z,74.2366
2023-05-04T07:22:45.199Z,73.8422
2023-05-04T07:23:47.558Z,73.9630
2023-05-04T07:24:49.966Z,73.8555
2023-05-04T07:25:53.607Z,73.2491
2023-05-04T07:26:53.541Z,73.6060
2023-05-04T07:27:55.937Z,74.4855
2023-05-04T07:28:58.328Z,74.4878
2023-05-04T07:30:00.729Z,74.5434
2023-05-04T07:31:03.090Z,74.4072
2023-05-04T07:32:05.527Z,73.9343
2023-05-04T07:33:07.915Z,73.7257
2023-05-04T07:34:10.288Z,73.3907
2023-05-04T07:35:12.891Z,73.0711
2023-05-04T07:36:15.337Z,73.1388
2023-05-04T07:37:17.761Z,73.3489
2023-05-04T07:38:20.128Z,73.6740
2023-05-04T07:39:22.558Z,73.2969
2023-05-04T07:40:24.991Z,72.6472
2023-05-04T07:41:27.421Z,72.3941
2023-05-04T07:42:29.857Z,72.2849
2023-05-04T07:43:32.238Z,72.5005
2023-05-04T07:44:34.647Z,72.1868
2023-05-04T07:45:37.096Z,72.0983
2023-05-04T07:46:39.629Z,72.1585
2023-05-04T07:47:42.196Z,72.0232
2023-05-04T07:48:44.646Z,72.3612
2023-05-04T07:49:47.065Z,72.5616
2023-05-04T07:50:49.472Z,72.8568
2023-05-04T07:51:51.900Z,72.9962
2023-05-04T07:52:54.341Z,73.0516
2023-05-04T07:53:56.759Z,72.7421
2023-05-04T07:54:59.170Z,72.8817
2023-05-04T07:56:01.573Z,73.2162
2023-05-04T07:57:03.998Z,72.7624
2023-05-04T07:58:06.391Z,72.8341
2023-05-04T07:59:08.813Z,72.7984
2023-05-04T08:00:11.196Z,72.7213
2023-05-04T08:01:13.599Z,73.4526
2023-05-04T08:02:16.015Z,73.0298
2023-05-04T08:03:18.412Z,72.7778
2023-05-04T08:04:20.814Z,72.3387
2023-05-04T08:05:23.283Z,72.4112
2023-05-04T08:06:25.725Z,72.2710
2023-05-04T08:07:28.129Z,72.2499
2023-05-04T08:08:30.515Z,72.5213
2023-05-04T08:09:32.857Z,72.2397
2023-05-04T08:10:35.267Z,71.6298
2023-05-04T08:11:37.869Z,71.3113
2023-05-04T08:12:37.912Z,71.6139
2023-05-04T08:13:40.298Z,71.3361
2023-05-04T08:14:42.667Z,70.6935
2023-05-04T08:15:45.024Z,70.0927
2023-05-04T08:16:47.438Z,69.9988
2023-05-04T08:17:49.848Z,70.4066
2023-05-04T08:18:52.204Z,71.3049
2023-05-04T08:19:54.584Z,70.9078
2023-05-04T08:20:56.981Z,70.6439
2023-05-04T08:21:59.314Z,70.3990
2023-05-04T08:23:01.916Z,70.0959
2023-05-04T08:24:04.426Z,70.3016
2023-05-04T08:25:06.988Z,71.1493
2023-05-04T08:26:06.794Z,70.6678
2023-05-04T08:27:09.317Z,70.6717
2023-05-04T08:28:09.709Z,70.9395
2023-05-04T08:29:12.097Z,70.6848
2023-05-04T08:30:14.493Z,70.3023
2023-05-04T08:31:16.958Z,70.4528
2023-05-04T08:32:19.328Z,69.9553
2023-05-04T08:33:21.695Z,69.5270
2023-05-04T08:34:24.093Z,69.7777
2023-05-04T08:35:26.474Z,69.6848
2023-05-04T08:36:28.855Z,69.4094
2023-05-04T08:37:31.193Z,69.5223
2023-05-04T08:38:33.608Z,69.3159
2023-05-04T08:39:35.959Z,69.0344
2023-05-04T08:40:38.345Z,68.9264
2023-05-04T08:41:40.689Z,68.6189
2023-05-04T08:42:43.090Z,68.7061
2023-05-04T08:43:45.446Z,68.3564
2023-05-04T08:44:47.856Z,68.2397
2023-05-04T08:45:50.299Z,68.0278
2023-05-04T08:46:52.711Z,67.6590
2023-05-04T08:47:55.150Z,68.3087
2023-05-04T08:48:57.643Z,68.2244
2023-05-04T08:50:00.031Z,67.9123
2023-05-04T08:51:02.400Z,67.8743
2023-05-04T08:52:04.755Z,67.8275
2023-05-04T08:53:07.140Z,67.8386
2023-05-04T08:54:09.516Z,67.4256
2023-05-04T08:55:11.901Z,67.1475
2023-05-04T08:56:14.237Z,67.1279
2023-05-04T08:57:14.316Z,67.4370
2023-05-04T08:58:16.676Z,67.4774
2023-05-04T08:59:19.015Z,67.2494
2023-05-04T09:00:21.382Z,67.0133
2023-05-04T09:01:23.839Z,66.7475
2023-05-04T09:02:26.274Z,66.7749
2023-05-04T09:03:28.727Z,66.6374
2023-05-04T09:04:31.141Z,66.2843
2023-05-04T09:05:33.528Z,66.3525
2023-05-04T09:06:35.868Z,66.3254
2023-05-04T09:07:38.207Z,65.9356
2023-05-04T09:08:40.604Z,66.1320
2023-05-04T09:09:42.965Z,66.6457
2023-05-04T09:10:45.340Z,66.7962
2023-05-04T09:11:47.711Z,66.5786
2023-05-04T09:12:50.092Z,65.6311
2023-05-04T09:13:52.458Z,66.1856
2023-05-04T09:14:54.799Z,65.4491
2023-05-04T09:15:57.185Z,66.3020
2023-05-04T09:16:59.541Z,65.7564
2023-05-04T09:18:01.943Z,65.7686
2023-05-04T09:19:04.291Z,65.7635
2023-05-04T09:20:06.654Z,65.3816
2023-05-04T09:21:09.017Z,65.8354
2023-05-04T09:22:11.391Z,65.2531
2023-05-04T09:23:13.849Z,65.0776
2023-05-04T09:24:16.207Z,64.6869
2023-05-04T09:25:18.632Z,65.3400
2023-05-04T09:26:20.995Z,66.3458
2023-05-04T09:27:23.313Z,66.1916
2023-05-04T09:28:27.739Z,65.6324
2023-05-04T09:29:28.319Z,64.3534
2023-05-04T09:30:30.648Z,64.9204
2023-05-04T09:31:33.110Z,64.8089
2023-05-04T09:32:35.559Z,64.4193
2023-05-04T09:33:37.866Z,64.1672
2023-05-04T09:34:40.235Z,64.1780
2023-05-04T09:35:42.600Z,64.3465
2023-05-04T09:36:44.959Z,64.4470
2023-05-04T09:37:47.341Z,63.7991
2023-05-04T09:38:49.674Z,64.0380
2023-05-04T09:39:52.073Z,64.2132
2023-05-04T09:40:54.485Z,63.6013
2023-05-04T09:41:56.813Z,64.1800
2023-05-04T09:42:59.122Z,64.0850
2023-05-04T09:44:01.452Z,63.4134
2023-05-04T09:45:04.085Z,63.8680
2023-05-04T09:46:03.974Z,63.7892
2023-05-04T09:47:06.311Z,63.6970
2023-05-04T09:48:08.745Z,64.1745
2023-05-04T09:49:11.126Z,63.6588
2023-05-04T09:50:13.510Z,63.6620
2023-05-04T09:51:15.888Z,63.6024
2023-05-04T09:52:18.219Z,63.3170
2023-05-04T09:53:20.601Z,63.4184
2023-05-04T09:54:22.963Z,63.5027
2023-05-04T09:55:25.300Z,63.1172
2023-05-04T09:56:27.776Z,62.9156
2023-05-04T09:57:30.110Z,63.2405
2023-05-04T09:58:32.441Z,63.0657
2023-05-04T09:59:34.815Z,63.3616
2023-05-04T10:00:37.125Z,63.0814
2023-05-04T10:01:39.530Z,63.5517
2023-05-04T10:02:41.876Z,63.3638
2023-05-04T10:03:44.309Z,63.0235
2023-05-04T10:04:46.684Z,63.3712
2023-05-04T10:05:49.102Z,62.9823
2023-05-04T10:06:51.679Z,62.4696
2023-05-04T10:07:54.247Z,62.3539
2023-05-04T10:08:55.849Z,63.3709
2023-05-04T10:09:59.608Z,62.8683
2023-05-04T10:11:02.029Z,62.8869
2023-05-04T10:12:04.407Z,62.9349
2023-05-04T10:13:06.849Z,62.6064
2023-05-04T10:14:09.264Z,62.3090
2023-05-04T10:15:11.617Z,62.6957
2023-05-04T10:16:14.083Z,62.9990
2023-05-04T10:17:16.475Z,63.3490
2023-05-04T10:18:18.895Z,63.3827
2023-05-04T10:19:21.256Z,62.9064
2023-05-04T10:20:23.695Z,62.4021
2023-05-04T10:21:26.173Z,61.4767
2023-05-04T10:22:28.529Z,62.0616
2023-05-04T10:23:30.961Z,62.0643
2023-05-04T10:24:33.318Z,62.1544
2023-05-04T10:25:35.757Z,61.7015
2023-05-04T10:26:38.161Z,60.5943
2023-05-04T10:27:40.598Z,60.0458
2023-05-04T10:28:43.025Z,60.0273
2023-05-04T10:29:45.445Z,60.7204
2023-05-04T10:30:47.901Z,60.0795
2023-05-04T10:31:50.372Z,59.4091
2023-05-04T10:32:52.775Z,59.3027
2023-05-04T10:33:55.101Z,59.2162
2023-05-04T10:34:57.468Z,59.7577
2023-05-04T10:35:59.851Z,59.3471
2023-05-04T10:37:02.337Z,60.4134
2023-05-04T10:38:04.710Z,59.9275
2023-05-04T10:39:07.084Z,59.1128
2023-05-04T10:40:09.453Z,59.7107
2023-05-04T10:41:11.816Z,60.2837
2023-05-04T10:42:14.232Z,61.0288
2023-05-04T10:43:16.577Z,61.0064
2023-05-04T10:44:18.958Z,60.4377
2023-05-04T10:45:21.344Z,60.1455
2023-05-04T10:46:23.728Z,60.1291
2023-05-04T10:47:26.148Z,59.9565
2023-05-04T10:48:28.502Z,60.2457
2023-05-04T10:49:30.910Z,60.0009
2023-05-04T10:50:33.365Z,59.3704
2023-05-04T10:51:48.701Z,59.2752
2023-05-04T10:52:33.976Z,59.6957
2023-05-04T10:53:36.519Z,59.8859
2023-05-04T10:54:38.960Z,58.9928
2023-05-04T10:55:41.328Z,59.5325
2023-05-04T10:56:43.658Z,58.1150
2023-05-04T10:57:46.063Z,58.2618
2023-05-04T10:58:48.494Z,58.6356
2023-05-04T10:59:50.878Z,59.1237
2023-05-04T11:00:53.298Z,59.0076
2023-05-04T11:01:55.712Z,57.7756
2023-05-04T11:02:58.166Z,57.0688
2023-05-04T11:04:00.618Z,57.7000
2023-05-04T11:05:03.268Z,57.9449
2023-05-04T11:06:03.310Z,58.5294
2023-05-04T11:07:05.847Z,57.7240
2023-05-04T11:08:08.296Z,54.1910
2023-05-04T11:09:10.623Z,52.3482
2023-05-04T11:10:13.007Z,49.9670
2023-05-04T11:11:15.316Z,49.4553
2023-05-04T11:12:17.598Z,49.2524
2023-05-04T11:13:19.916Z,48.2252
2023-05-04T11:14:22.178Z,49.0179
2023-05-04T11:15:24.507Z,48.4584
2023-05-04T11:16:26.874Z,47.7011
2023-05-04T11:17:29.138Z,47.4154
2023-05-04T11:18:31.403Z,48.3932
2023-05-04T11:19:33.698Z,48.1530
2023-05-04T11:20:35.978Z,46.7249
2023-05-04T11:21:38.257Z,45.2327
2023-05-04T11:22:40.549Z,45.3386
2023-05-04T11:23:42.775Z,49.5672
2023-05-04T11:24:45.075Z,50.3988
2023-05-04T11:25:47.361Z,48.2084
2023-05-04T11:26:49.664Z,46.2966
2023-05-04T11:27:52.073Z,48.1535
2023-05-04T11:28:54.322Z,44.7807
2023-05-04T11:29:56.579Z,43.5671
2023-05-04T11:30:59.308Z,44.8920
2023-05-04T11:31:59.651Z,46.9275
2023-05-04T11:33:01.969Z,45.7494
2023-05-04T11:34:04.188Z,44.7612
2023-05-04T11:35:06.641Z,42.1759
2023-05-04T11:36:06.223Z,45.4156
2023-05-04T11:37:08.437Z,45.5675
2023-05-04T11:38:10.673Z,40.9419
2023-05-04T11:39:12.838Z,40.9093
2023-05-04T11:40:15.102Z,41.6587
2023-05-04T11:41:17.304Z,42.2719
2023-05-04T11:42:19.520Z,41.0464
2023-05-04T11:43:21.642Z,42.5854
2023-05-04T11:44:23.767Z,41.6915
2023-05-04T11:45:25.946Z,42.2479
2023-05-04T11:46:28.169Z,42.8301
2023-05-04T11:47:30.243Z,42.3084
2023-05-04T11:48:32.388Z,40.7870
2023-05-04T11:49:34.518Z,41.2707
2023-05-04T11:50:36.593Z,42.9091
2023-05-04T11:51:38.812Z,44.4170
2023-05-04T11:52:41.201Z,41.9866
2023-05-04T11:53:43.354Z,41.7525
2023-05-04T11:54:45.520Z,41.4909
2023-05-04T11:55:47.697Z,41.2738
2023-05-04T11:56:49.812Z,42.0012
2023-05-04T11:57:51.952Z,42.5552
2023-05-04T11:58:54.074Z,42.1480
2023-05-04T11:59:56.227Z,41.6955
2023-05-04T12:00:58.344Z,40.6058
2023-05-04T12:02:00.482Z,39.0655
2023-05-04T12:03:02.712Z,37.5459
2023-05-04T12:04:05.024Z,36.4179
2023-05-04T12:05:07.389Z,36.8937
2023-05-04T12:06:07.256Z,42.1678
2023-05-04T12:07:09.403Z,41.2560
2023-05-04T12:08:11.529Z,42.0826
2023-05-04T12:09:13.655Z,41.5942
2023-05-04T12:10:15.812Z,41.4830
2023-05-04T12:11:16.599Z,38.7308
2023-05-04T12:12:18.762Z,36.7878
2023-05-04T12:13:20.901Z,37.0210
2023-05-04T12:14:22.975Z,36.2519
2023-05-04T12:15:25.141Z,36.6440
2023-05-04T12:16:27.302Z,38.4969
2023-05-04T12:17:29.499Z,38.9050
2023-05-04T12:18:31.578Z,37.8119
2023-05-04T12:19:33.691Z,37.7032
2023-05-04T12:20:35.878Z,37.7391
2023-05-04T12:21:37.998Z,38.1056
2023-05-04T12:22:40.063Z,35.4315
2023-05-04T12:23:42.149Z,35.5291
2023-05-04T12:24:44.303Z,37.5743
2023-05-04T12:25:57.419Z,36.9903
2023-05-04T12:26:48.817Z,37.9232
2023-05-04T12:27:50.938Z,37.9695
2023-05-04T12:28:53.052Z,37.8114
2023-05-04T12:29:55.135Z,36.8319
2023-05-04T12:30:57.316Z,39.1153
2023-05-04T12:31:59.479Z,40.0588
2023-05-04T12:33:01.774Z,38.8706
2023-05-04T12:34:03.911Z,38.0275